sensor_id;sensor_type;location;lat;lon;timestamp;pressure;altitude;pressure_sealevel;temperature;humidity
61484;BME280;47349;55.640;37.692;2023-04-27T00:01:20;98504.19;;;11.39;75.13
61484;BME280;47349;55.640;37.692;2023-04-27T00:03:50;98493.69;;;11.38;74.56
61484;BME280;47349;55.640;37.692;2023-04-27T00:06:18;98496.13;;;11.46;74.10
61484;BME280;47349;55.640;37.692;2023-04-27T00:08:47;98506.84;;;11.52;73.96
61484;BME280;47349;55.640;37.692;2023-04-27T00:11:16;98511.38;;;11.58;73.57
61484;BME280;47349;55.640;37.692;2023-04-27T00:13:44;98510.75;;;11.50;74.08
61484;BME280;47349;55.640;37.692;2023-04-27T00:16:11;98524.38;;;11.62;74.21
61484;BME280;47349;55.640;37.692;2023-04-27T00:18:39;98493.44;;;11.46;73.76
61484;BME280;47349;55.640;37.692;2023-04-27T00:21:08;98509.09;;;11.55;74.34
61484;BME280;47349;55.640;37.692;2023-04-27T00:23:35;98519.19;;;11.60;74.62
61484;BME280;47349;55.640;37.692;2023-04-27T00:26:04;98505.84;;;11.47;74.04
61484;BME280;47349;55.640;37.692;2023-04-27T00:28:31;98496.34;;;11.44;74.27
61484;BME280;47349;55.640;37.692;2023-04-27T00:30:59;98507.03;;;11.57;73.57
61484;BME280;47349;55.640;37.692;2023-04-27T00:33:38;98522.28;;;11.70;73.05
61484;BME280;47349;55.640;37.692;2023-04-27T00:36:06;98509.88;;;11.69;72.51
61484;BME280;47349;55.640;37.692;2023-04-27T00:38:33;98519.38;;;11.85;72.39
61484;BME280;47349;55.640;37.692;2023-04-27T00:41:05;98502.19;;;11.79;72.26
61484;BME280;47349;55.640;37.692;2023-04-27T00:43:41;98519.34;;;11.92;71.40
61484;BME280;47349;55.640;37.692;2023-04-27T00:46:11;98507.78;;;11.91;71.81
61484;BME280;47349;55.640;37.692;2023-04-27T00:48:39;98500.97;;;11.89;71.57
61484;BME280;47349;55.640;37.692;2023-04-27T00:51:08;98503.47;;;11.90;71.75
61484;BME280;47349;55.640;37.692;2023-04-27T00:53:36;98496.03;;;11.86;71.29
61484;BME280;47349;55.640;37.692;2023-04-27T00:56:04;98499.09;;;11.89;69.86
61484;BME280;47349;55.640;37.692;2023-04-27T00:58:47;98512.28;;;12.04;69.77
61484;BME280;47349;55.640;37.692;2023-04-27T01:01:15;98500.13;;;11.95;69.21
61484;BME280;47349;55.640;37.692;2023-04-27T01:03:42;98497.81;;;11.98;69.57
61484;BME280;47349;55.640;37.692;2023-04-27T01:06:10;98509.78;;;12.02;69.11
61484;BME280;47349;55.640;37.692;2023-04-27T01:08:38;98515.16;;;12.02;70.09
61484;BME280;47349;55.640;37.692;2023-04-27T01:11:05;98501.56;;;11.97;69.16
61484;BME280;47349;55.640;37.692;2023-04-27T01:13:32;98495.97;;;11.99;69.33
61484;BME280;47349;55.640;37.692;2023-04-27T01:16:00;98513.69;;;12.06;68.77
61484;BME280;47349;55.640;37.692;2023-04-27T01:18:29;98512.66;;;12.07;68.52
61484;BME280;47349;55.640;37.692;2023-04-27T01:20:59;98503.59;;;12.02;68.05
61484;BME280;47349;55.640;37.692;2023-04-27T01:23:27;98499.22;;;12.07;67.02
61484;BME280;47349;55.640;37.692;2023-04-27T01:26:09;98513.00;;;12.24;66.65
61484;BME280;47349;55.640;37.692;2023-04-27T01:28:41;98510.03;;;12.32;66.80
61484;BME280;47349;55.640;37.692;2023-04-27T01:31:09;98501.25;;;12.19;67.40
61484;BME280;47349;55.640;37.692;2023-04-27T01:33:38;98516.47;;;12.31;67.25
61484;BME280;47349;55.640;37.692;2023-04-27T01:36:08;98515.03;;;12.29;66.92
61484;BME280;47349;55.640;37.692;2023-04-27T01:38:49;98504.72;;;12.26;66.79
61484;BME280;47349;55.640;37.692;2023-04-27T01:41:17;98516.47;;;12.31;66.51
61484;BME280;47349;55.640;37.692;2023-04-27T01:43:44;98514.59;;;12.32;66.28
61484;BME280;47349;55.640;37.692;2023-04-27T01:46:13;98504.72;;;12.26;66.53
61484;BME280;47349;55.640;37.692;2023-04-27T01:48:43;98524.28;;;12.40;66.53
61484;BME280;47349;55.640;37.692;2023-04-27T01:51:13;98496.88;;;12.24;66.53
61484;BME280;47349;55.640;37.692;2023-04-27T01:53:54;98493.56;;;12.22;66.95
61484;BME280;47349;55.640;37.692;2023-04-27T01:56:22;98503.09;;;12.18;66.71
61484;BME280;47349;55.640;37.692;2023-04-27T01:58:51;98527.00;;;12.33;66.29
61484;BME280;47349;55.640;37.692;2023-04-27T02:01:19;98494.03;;;12.19;67.91
61484;BME280;47349;55.640;37.692;2023-04-27T02:03:48;98503.78;;;12.07;70.28
61484;BME280;47349;55.640;37.692;2023-04-27T02:06:15;98520.53;;;12.02;69.57
61484;BME280;47349;55.640;37.692;2023-04-27T02:08:45;98508.38;;;11.93;68.32
61484;BME280;47349;55.640;37.692;2023-04-27T02:11:19;98514.22;;;11.77;70.61
61484;BME280;47349;55.640;37.692;2023-04-27T02:13:49;98517.06;;;11.89;68.89
61484;BME280;47349;55.640;37.692;2023-04-27T02:16:17;98529.22;;;11.98;68.83
61484;BME280;47349;55.640;37.692;2023-04-27T02:18:54;98524.22;;;12.08;68.22
61484;BME280;47349;55.640;37.692;2023-04-27T02:21:21;98528.00;;;12.00;68.68
61484;BME280;47349;55.640;37.692;2023-04-27T02:23:49;98552.75;;;12.09;69.21
61484;BME280;47349;55.640;37.692;2023-04-27T02:26:17;98541.22;;;11.95;70.45
61484;BME280;47349;55.640;37.692;2023-04-27T02:28:47;98537.53;;;11.90;70.73
61484;BME280;47349;55.640;37.692;2023-04-27T02:31:15;98537.09;;;11.79;71.24
61484;BME280;47349;55.640;37.692;2023-04-27T02:33:44;98528.03;;;11.80;71.43
61484;BME280;47349;55.640;37.692;2023-04-27T02:36:12;98527.22;;;11.73;71.78
61484;BME280;47349;55.640;37.692;2023-04-27T02:38:39;98553.66;;;11.90;72.13
61484;BME280;47349;55.640;37.692;2023-04-27T02:41:09;98559.03;;;11.90;72.31
61484;BME280;47349;55.640;37.692;2023-04-27T02:43:36;98519.84;;;11.62;73.54
61484;BME280;47349;55.640;37.692;2023-04-27T02:46:04;98548.53;;;11.62;74.06
61484;BME280;47349;55.640;37.692;2023-04-27T02:48:32;98552.06;;;11.49;75.20
61484;BME280;47349;55.640;37.692;2023-04-27T02:51:02;98552.50;;;11.32;75.81
61484;BME280;47349;55.640;37.692;2023-04-27T02:53:30;98551.88;;;11.44;75.99
61484;BME280;47349;55.640;37.692;2023-04-27T02:55:58;98552.47;;;11.46;75.57
61484;BME280;47349;55.640;37.692;2023-04-27T02:58:26;98567.13;;;11.56;76.00
61484;BME280;47349;55.640;37.692;2023-04-27T03:00:54;98566.28;;;11.63;75.05
61484;BME280;47349;55.640;37.692;2023-04-27T03:03:28;98558.22;;;11.63;75.17
61484;BME280;47349;55.640;37.692;2023-04-27T03:05:55;98565.47;;;11.62;74.87
61484;BME280;47349;55.640;37.692;2023-04-27T03:08:22;98588.75;;;11.68;75.30
61484;BME280;47349;55.640;37.692;2023-04-27T03:10:50;98572.50;;;11.56;75.44
61484;BME280;47349;55.640;37.692;2023-04-27T03:13:18;98596.59;;;11.76;74.20
61484;BME280;47349;55.640;37.692;2023-04-27T03:15:45;98581.31;;;11.77;73.88
61484;BME280;47349;55.640;37.692;2023-04-27T03:18:13;98572.25;;;11.85;74.24
61484;BME280;47349;55.640;37.692;2023-04-27T03:20:40;98596.13;;;12.06;73.23
61484;BME280;47349;55.640;37.692;2023-04-27T03:23:07;98593.63;;;12.11;72.85
61484;BME280;47349;55.640;37.692;2023-04-27T03:25:35;98581.03;;;12.12;71.66
61484;BME280;47349;55.640;37.692;2023-04-27T03:28:11;98605.31;;;12.37;71.23
61484;BME280;47349;55.640;37.692;2023-04-27T03:30:42;98591.88;;;12.37;72.06
61484;BME280;47349;55.640;37.692;2023-04-27T03:33:10;98608.44;;;12.33;73.45
61484;BME280;47349;55.640;37.692;2023-04-27T03:35:57;98604.16;;;12.13;74.01
61484;BME280;47349;55.640;37.692;2023-04-27T03:38:30;98599.03;;;11.98;73.92
61484;BME280;47349;55.640;37.692;2023-04-27T03:40:59;98597.03;;;11.87;74.31
61484;BME280;47349;55.640;37.692;2023-04-27T03:43:27;98613.28;;;11.98;75.31
61484;BME280;47349;55.640;37.692;2023-04-27T03:45:55;98612.91;;;11.95;74.09
61484;BME280;47349;55.640;37.692;2023-04-27T03:48:23;98594.28;;;12.06;73.17
61484;BME280;47349;55.640;37.692;2023-04-27T03:50:52;98620.47;;;12.24;73.59
61484;BME280;47349;55.640;37.692;2023-04-27T03:53:25;98612.81;;;12.21;73.92
61484;BME280;47349;55.640;37.692;2023-04-27T03:55:53;98611.59;;;12.17;73.75
61484;BME280;47349;55.640;37.692;2023-04-27T03:58:20;98623.28;;;12.36;73.37
61484;BME280;47349;55.640;37.692;2023-04-27T04:01:09;98602.25;;;12.26;72.66
61484;BME280;47349;55.640;37.692;2023-04-27T04:03:37;98614.19;;;12.37;73.64
61484;BME280;47349;55.640;37.692;2023-04-27T04:06:07;98631.38;;;12.29;74.47
61484;BME280;47349;55.640;37.692;2023-04-27T04:08:48;98605.13;;;12.31;72.27
61484;BME280;47349;55.640;37.692;2023-04-27T04:11:31;98626.97;;;12.48;71.94
61484;BME280;47349;55.640;37.692;2023-04-27T04:14:01;98618.44;;;12.58;71.00
61484;BME280;47349;55.640;37.692;2023-04-27T04:16:28;98620.22;;;12.71;70.67
61484;BME280;47349;55.640;37.692;2023-04-27T04:18:56;98627.72;;;12.62;72.91
61484;BME280;47349;55.640;37.692;2023-04-27T04:21:24;98623.13;;;12.69;72.60
61484;BME280;47349;55.640;37.692;2023-04-27T04:23:53;98630.97;;;12.71;72.26
61484;BME280;47349;55.640;37.692;2023-04-27T04:26:21;98633.19;;;12.80;71.41
61484;BME280;47349;55.640;37.692;2023-04-27T04:28:50;98636.94;;;12.79;72.51
61484;BME280;47349;55.640;37.692;2023-04-27T04:31:18;98638.75;;;12.85;72.66
61484;BME280;47349;55.640;37.692;2023-04-27T04:33:48;98631.72;;;12.84;72.83
61484;BME280;47349;55.640;37.692;2023-04-27T04:36:24;98636.63;;;12.94;72.80
61484;BME280;47349;55.640;37.692;2023-04-27T04:38:54;98626.69;;;12.95;73.07
61484;BME280;47349;55.640;37.692;2023-04-27T04:41:37;98643.00;;;13.00;72.95
61484;BME280;47349;55.640;37.692;2023-04-27T04:44:11;98631.25;;;12.94;72.88
61484;BME280;47349;55.640;37.692;2023-04-27T04:46:41;98619.75;;;12.80;72.63
61484;BME280;47349;55.640;37.692;2023-04-27T04:49:09;98660.81;;;13.01;73.07
61484;BME280;47349;55.640;37.692;2023-04-27T04:51:43;98659.53;;;13.03;73.20
61484;BME280;47349;55.640;37.692;2023-04-27T04:54:12;98646.31;;;13.02;73.09
61484;BME280;47349;55.640;37.692;2023-04-27T04:56:41;98632.41;;;13.05;72.95
61484;BME280;47349;55.640;37.692;2023-04-27T04:59:09;98649.78;;;13.09;72.50
61484;BME280;47349;55.640;37.692;2023-04-27T05:01:38;98636.50;;;13.14;72.02
61484;BME280;47349;55.640;37.692;2023-04-27T05:04:07;98641.16;;;13.32;71.29
61484;BME280;47349;55.640;37.692;2023-04-27T05:06:35;98649.97;;;13.46;71.06
61484;BME280;47349;55.640;37.692;2023-04-27T05:09:02;98646.03;;;13.67;70.48
61484;BME280;47349;55.640;37.692;2023-04-27T05:11:32;98648.25;;;13.76;69.00
61484;BME280;47349;55.640;37.692;2023-04-27T05:14:00;98649.59;;;13.85;68.95
61484;BME280;47349;55.640;37.692;2023-04-27T05:16:29;98660.19;;;14.05;68.72
61484;BME280;47349;55.640;37.692;2023-04-27T05:18:58;98650.22;;;14.06;68.24
61484;BME280;47349;55.640;37.692;2023-04-27T05:21:27;98635.88;;;14.12;68.29
61484;BME280;47349;55.640;37.692;2023-04-27T05:23:54;98628.53;;;14.19;66.96
61484;BME280;47349;55.640;37.692;2023-04-27T05:26:22;98651.50;;;14.40;67.58
61484;BME280;47349;55.640;37.692;2023-04-27T05:28:58;98659.69;;;14.52;66.86
61484;BME280;47349;55.640;37.692;2023-04-27T05:31:27;98651.81;;;14.50;66.16
61484;BME280;47349;55.640;37.692;2023-04-27T05:33:55;98659.38;;;14.60;65.82
61484;BME280;47349;55.640;37.692;2023-04-27T05:36:33;98683.19;;;14.81;65.65
61484;BME280;47349;55.640;37.692;2023-04-27T05:39:18;98670.50;;;14.82;65.32
61484;BME280;47349;55.640;37.692;2023-04-27T05:41:46;98665.63;;;14.90;64.47
61484;BME280;47349;55.640;37.692;2023-04-27T05:44:15;98656.03;;;14.95;64.04
61484;BME280;47349;55.640;37.692;2023-04-27T05:46:44;98663.28;;;14.94;63.13
61484;BME280;47349;55.640;37.692;2023-04-27T05:49:12;98664.84;;;15.02;63.41
61484;BME280;47349;55.640;37.692;2023-04-27T05:51:40;98660.50;;;15.01;61.53
61484;BME280;47349;55.640;37.692;2023-04-27T05:54:07;98688.63;;;15.23;61.40
61484;BME280;47349;55.640;37.692;2023-04-27T05:56:35;98655.50;;;15.16;60.68
61484;BME280;47349;55.640;37.692;2023-04-27T05:59:03;98663.41;;;15.29;60.56
61484;BME280;47349;55.640;37.692;2023-04-27T06:01:30;98656.94;;;15.30;59.06
61484;BME280;47349;55.640;37.692;2023-04-27T06:03:57;98663.97;;;15.31;57.71
61484;BME280;47349;55.640;37.692;2023-04-27T06:06:32;98668.22;;;15.39;57.52
61484;BME280;47349;55.640;37.692;2023-04-27T06:09:03;98677.53;;;15.55;57.04
61484;BME280;47349;55.640;37.692;2023-04-27T06:11:32;98678.72;;;15.59;58.63
61484;BME280;47349;55.640;37.692;2023-04-27T06:13:59;98670.88;;;15.69;57.25
61484;BME280;47349;55.640;37.692;2023-04-27T06:16:27;98685.94;;;15.88;56.35
61484;BME280;47349;55.640;37.692;2023-04-27T06:18:55;98669.72;;;15.88;56.52
61484;BME280;47349;55.640;37.692;2023-04-27T06:21:24;98679.34;;;16.08;56.92
61484;BME280;47349;55.640;37.692;2023-04-27T06:23:52;98685.59;;;16.20;55.83
61484;BME280;47349;55.640;37.692;2023-04-27T06:26:19;98675.56;;;16.32;56.56
61484;BME280;47349;55.640;37.692;2023-04-27T06:29:10;98684.84;;;16.36;55.33
61484;BME280;47349;55.640;37.692;2023-04-27T06:31:37;98671.31;;;16.36;55.42
61484;BME280;47349;55.640;37.692;2023-04-27T06:34:19;98673.56;;;16.39;55.09
61484;BME280;47349;55.640;37.692;2023-04-27T06:37:04;98669.69;;;16.35;54.46
61484;BME280;47349;55.640;37.692;2023-04-27T06:42:19;98673.47;;;16.34;52.92
61484;BME280;47349;55.640;37.692;2023-04-27T06:45:00;98685.78;;;16.54;53.47
61484;BME280;47349;55.640;37.692;2023-04-27T06:47:28;98677.53;;;16.49;51.86
61484;BME280;47349;55.640;37.692;2023-04-27T06:49:56;98682.13;;;16.48;51.39
61484;BME280;47349;55.640;37.692;2023-04-27T06:52:24;98689.97;;;16.61;51.35
61484;BME280;47349;55.640;37.692;2023-04-27T06:54:51;98698.69;;;16.75;51.85
61484;BME280;47349;55.640;37.692;2023-04-27T06:57:19;98692.53;;;16.80;52.75
61484;BME280;47349;55.640;37.692;2023-04-27T06:59:46;98711.44;;;16.91;51.01
61484;BME280;47349;55.640;37.692;2023-04-27T07:02:14;98685.25;;;16.80;51.88
61484;BME280;47349;55.640;37.692;2023-04-27T07:14:11;98696.63;;;17.23;50.05
61484;BME280;47349;55.640;37.692;2023-04-27T07:16:39;98675.34;;;17.14;49.66
61484;BME280;47349;55.640;37.692;2023-04-27T07:19:09;98684.81;;;17.29;49.75
61484;BME280;47349;55.640;37.692;2023-04-27T07:21:37;98684.81;;;17.29;48.58
61484;BME280;47349;55.640;37.692;2023-04-27T07:24:04;98672.00;;;17.24;49.30
61484;BME280;47349;55.640;37.692;2023-04-27T07:26:31;98694.50;;;17.41;49.08
61484;BME280;47349;55.640;37.692;2023-04-27T07:28:59;98683.09;;;17.39;49.78
61484;BME280;47349;55.640;37.692;2023-04-27T07:31:34;98692.13;;;17.45;49.68
61484;BME280;47349;55.640;37.692;2023-04-27T07:34:02;98695.13;;;17.60;49.90
61484;BME280;47349;55.640;37.692;2023-04-27T07:36:29;98691.06;;;17.63;50.45
61484;BME280;47349;55.640;37.692;2023-04-27T07:38:57;98693.69;;;17.58;50.64
61484;BME280;47349;55.640;37.692;2023-04-27T07:41:27;98685.97;;;17.50;51.16
61484;BME280;47349;55.640;37.692;2023-04-27T07:43:54;98708.56;;;17.55;52.36
61484;BME280;47349;55.640;37.692;2023-04-27T07:46:24;98700.63;;;17.65;52.96
61484;BME280;47349;55.640;37.692;2023-04-27T07:48:52;98696.00;;;17.66;53.31
61484;BME280;47349;55.640;37.692;2023-04-27T07:51:20;98705.41;;;17.75;52.22
61484;BME280;47349;55.640;37.692;2023-04-27T07:53:48;98723.47;;;17.86;52.35
61484;BME280;47349;55.640;37.692;2023-04-27T07:56:15;98706.38;;;17.86;52.24
61484;BME280;47349;55.640;37.692;2023-04-27T07:58:45;98702.03;;;17.85;52.53
61484;BME280;47349;55.640;37.692;2023-04-27T08:01:12;98711.63;;;18.09;52.53
61484;BME280;47349;55.640;37.692;2023-04-27T08:03:39;98713.09;;;18.17;51.67
61484;BME280;47349;55.640;37.692;2023-04-27T08:06:07;98688.59;;;18.12;51.48
61484;BME280;47349;55.640;37.692;2023-04-27T08:08:35;98700.53;;;18.11;50.80
61484;BME280;47349;55.640;37.692;2023-04-27T08:11:21;98715.16;;;18.10;50.19
61484;BME280;47349;55.640;37.692;2023-04-27T08:14:08;98710.38;;;18.17;50.37
61484;BME280;47349;55.640;37.692;2023-04-27T08:16:40;98703.88;;;18.18;50.96
61484;BME280;47349;55.640;37.692;2023-04-27T08:19:09;98706.09;;;18.21;50.72
61484;BME280;47349;55.640;37.692;2023-04-27T08:21:37;98712.25;;;18.33;50.67
61484;BME280;47349;55.640;37.692;2023-04-27T08:26:50;98715.66;;;18.45;50.10
61484;BME280;47349;55.640;37.692;2023-04-27T08:29:36;98689.94;;;18.48;50.32
61484;BME280;47349;55.640;37.692;2023-04-27T08:32:04;98697.88;;;18.55;50.92
61484;BME280;47349;55.640;37.692;2023-04-27T08:34:46;98704.41;;;18.75;50.06
61484;BME280;47349;55.640;37.692;2023-04-27T08:37:13;98687.31;;;18.75;50.55
61484;BME280;47349;55.640;37.692;2023-04-27T08:39:59;98700.44;;;18.83;50.05
61484;BME280;47349;55.640;37.692;2023-04-27T08:42:30;98676.19;;;18.55;49.99
61484;BME280;47349;55.640;37.692;2023-04-27T08:44:58;98671.41;;;18.62;50.43
61484;BME280;47349;55.640;37.692;2023-04-27T08:47:26;98707.72;;;18.78;49.90
61484;BME280;47349;55.640;37.692;2023-04-27T08:50:09;98695.88;;;18.67;50.86
61484;BME280;47349;55.640;37.692;2023-04-27T08:52:37;98701.47;;;18.77;50.98
61484;BME280;47349;55.640;37.692;2023-04-27T08:55:05;98703.72;;;18.85;50.96
61484;BME280;47349;55.640;37.692;2023-04-27T08:57:34;98693.50;;;18.92;50.43
61484;BME280;47349;55.640;37.692;2023-04-27T09:00:01;98695.25;;;19.04;50.38
61484;BME280;47349;55.640;37.692;2023-04-27T09:02:45;98710.97;;;19.02;48.63
61484;BME280;47349;55.640;37.692;2023-04-27T09:05:20;98704.69;;;18.74;47.20
61484;BME280;47349;55.640;37.692;2023-04-27T09:10:24;98709.13;;;18.85;48.20
61484;BME280;47349;55.640;37.692;2023-04-27T09:12:59;98712.88;;;18.79;47.72
61484;BME280;47349;55.640;37.692;2023-04-27T09:15:27;98707.66;;;18.56;47.86
61484;BME280;47349;55.640;37.692;2023-04-27T09:17:55;98703.09;;;18.39;47.71
61484;BME280;47349;55.640;37.692;2023-04-27T09:20:23;98699.31;;;18.40;47.52
61484;BME280;47349;55.640;37.692;2023-04-27T09:22:53;98705.22;;;18.54;46.67
61484;BME280;47349;55.640;37.692;2023-04-27T09:25:29;98700.22;;;18.68;48.01
61484;BME280;47349;55.640;37.692;2023-04-27T09:27:58;98704.31;;;18.87;46.90
61484;BME280;47349;55.640;37.692;2023-04-27T09:30:28;98700.34;;;19.00;47.17
61484;BME280;47349;55.640;37.692;2023-04-27T09:32:57;98691.03;;;18.91;46.86
61484;BME280;47349;55.640;37.692;2023-04-27T09:35:32;98700.88;;;18.97;46.25
61484;BME280;47349;55.640;37.692;2023-04-27T09:38:03;98678.94;;;19.04;45.84
61484;BME280;47349;55.640;37.692;2023-04-27T09:40:30;98716.28;;;19.40;46.43
61484;BME280;47349;55.640;37.692;2023-04-27T09:43:00;98704.09;;;19.48;44.62
61484;BME280;47349;55.640;37.692;2023-04-27T09:45:28;98693.19;;;19.43;44.46
61484;BME280;47349;55.640;37.692;2023-04-27T09:47:57;98691.88;;;19.45;44.94
61484;BME280;47349;55.640;37.692;2023-04-27T09:50:24;98704.47;;;19.57;44.22
61484;BME280;47349;55.640;37.692;2023-04-27T09:52:52;98699.34;;;19.33;44.76
61484;BME280;47349;55.640;37.692;2023-04-27T09:55:24;98704.41;;;19.51;45.04
61484;BME280;47349;55.640;37.692;2023-04-27T10:08:58;98695.72;;;18.95;45.99
61484;BME280;47349;55.640;37.692;2023-04-27T10:11:39;98722.88;;;18.95;46.94
61484;BME280;47349;55.640;37.692;2023-04-27T10:14:09;98701.97;;;18.74;47.29
61484;BME280;47349;55.640;37.692;2023-04-27T10:19:15;98680.56;;;18.78;46.98
61484;BME280;47349;55.640;37.692;2023-04-27T10:21:58;98706.91;;;19.26;46.30
61484;BME280;47349;55.640;37.692;2023-04-27T10:24:38;98684.03;;;19.22;44.61
61484;BME280;47349;55.640;37.692;2023-04-27T10:27:07;98690.84;;;19.51;44.22
61484;BME280;47349;55.640;37.692;2023-04-27T10:29:45;98686.00;;;19.59;43.15
61484;BME280;47349;55.640;37.692;2023-04-27T10:34:47;98706.84;;;19.75;43.05
61484;BME280;47349;55.640;37.692;2023-04-27T10:37:15;98704.84;;;19.65;43.08
61484;BME280;47349;55.640;37.692;2023-04-27T10:39:45;98695.03;;;19.37;43.43
61484;BME280;47349;55.640;37.692;2023-04-27T10:42:35;98699.56;;;19.26;44.44
61484;BME280;47349;55.640;37.692;2023-04-27T10:45:06;98701.97;;;19.23;45.06
61484;BME280;47349;55.640;37.692;2023-04-27T10:47:40;98708.38;;;19.12;46.83
61484;BME280;47349;55.640;37.692;2023-04-27T10:50:08;98713.59;;;19.18;48.25
61484;BME280;47349;55.640;37.692;2023-04-27T10:52:43;98700.66;;;19.04;49.35
61484;BME280;47349;55.640;37.692;2023-04-27T10:55:17;98722.28;;;19.15;50.08
61484;BME280;47349;55.640;37.692;2023-04-27T10:57:51;98719.59;;;18.71;50.31
61484;BME280;47349;55.640;37.692;2023-04-27T11:00:41;98710.63;;;18.15;50.86
61484;BME280;47349;55.640;37.692;2023-04-27T11:03:25;98724.78;;;17.84;52.45
61484;BME280;47349;55.640;37.692;2023-04-27T11:06:02;98713.75;;;17.57;51.52
61484;BME280;47349;55.640;37.692;2023-04-27T11:08:30;98734.41;;;17.46;51.69
61484;BME280;47349;55.640;37.692;2023-04-27T11:10:58;98743.94;;;17.48;51.17
61484;BME280;47349;55.640;37.692;2023-04-27T11:13:25;98741.13;;;17.43;50.96
61484;BME280;47349;55.640;37.692;2023-04-27T11:15:56;98737.66;;;17.31;50.77
61484;BME280;47349;55.640;37.692;2023-04-27T11:18:28;98716.97;;;17.25;51.13
61484;BME280;47349;55.640;37.692;2023-04-27T11:23:52;98761.19;;;17.59;52.64
61484;BME280;47349;55.640;37.692;2023-04-27T11:26:21;98739.09;;;17.51;52.44
61484;BME280;47349;55.640;37.692;2023-04-27T11:29:05;98759.41;;;17.65;53.05
61484;BME280;47349;55.640;37.692;2023-04-27T11:31:42;98761.25;;;17.76;53.71
61484;BME280;47349;55.640;37.692;2023-04-27T11:34:18;98741.22;;;17.94;52.97
61484;BME280;47349;55.640;37.692;2023-04-27T11:36:59;98738.72;;;18.26;52.35
61484;BME280;47349;55.640;37.692;2023-04-27T11:39:37;98742.25;;;18.65;51.70
61484;BME280;47349;55.640;37.692;2023-04-27T11:42:17;98750.31;;;19.21;51.56
61484;BME280;47349;55.640;37.692;2023-04-27T11:45:11;98753.91;;;19.81;49.06
61484;BME280;47349;55.640;37.692;2023-04-27T11:47:45;98754.06;;;20.33;47.29
61484;BME280;47349;55.640;37.692;2023-04-27T11:50:13;98725.97;;;20.65;45.98
61484;BME280;47349;55.640;37.692;2023-04-27T11:52:41;98705.94;;;21.01;45.27
61484;BME280;47349;55.640;37.692;2023-04-27T11:55:08;98726.00;;;21.43;45.51
61484;BME280;47349;55.640;37.692;2023-04-27T11:58:13;98728.47;;;21.60;45.03
61484;BME280;47349;55.640;37.692;2023-04-27T12:00:41;98715.38;;;21.87;45.24
61484;BME280;47349;55.640;37.692;2023-04-27T12:03:09;98717.59;;;22.16;43.64
61484;BME280;47349;55.640;37.692;2023-04-27T12:05:46;98707.16;;;22.33;43.26
61484;BME280;47349;55.640;37.692;2023-04-27T12:08:32;98720.81;;;22.48;40.94
61484;BME280;47349;55.640;37.692;2023-04-27T12:11:03;98711.44;;;22.70;43.11
61484;BME280;47349;55.640;37.692;2023-04-27T12:13:31;98692.91;;;22.56;41.40
61484;BME280;47349;55.640;37.692;2023-04-27T12:16:16;98700.03;;;22.42;40.89
61484;BME280;47349;55.640;37.692;2023-04-27T12:18:44;98692.09;;;22.51;39.81
61484;BME280;47349;55.640;37.692;2023-04-27T12:21:11;98687.75;;;22.50;40.17
61484;BME280;47349;55.640;37.692;2023-04-27T12:23:39;98705.38;;;22.83;39.56
61484;BME280;47349;55.640;37.692;2023-04-27T12:26:07;98695.28;;;22.83;39.34
61484;BME280;47349;55.640;37.692;2023-04-27T12:28:39;98687.38;;;22.72;37.94
61484;BME280;47349;55.640;37.692;2023-04-27T12:31:06;98686.75;;;22.95;37.99
61484;BME280;47349;55.640;37.692;2023-04-27T12:33:53;98681.16;;;23.26;36.56
61484;BME280;47349;55.640;37.692;2023-04-27T12:39:17;98687.47;;;23.60;36.65
61484;BME280;47349;55.640;37.692;2023-04-27T12:42:22;98700.31;;;23.65;37.17
61484;BME280;47349;55.640;37.692;2023-04-27T12:44:50;98696.72;;;23.70;36.73
61484;BME280;47349;55.640;37.692;2023-04-27T12:47:20;98705.44;;;23.72;37.29
61484;BME280;47349;55.640;37.692;2023-04-27T12:50:08;98678.66;;;23.69;37.23
61484;BME280;47349;55.640;37.692;2023-04-27T12:52:35;98700.31;;;23.99;37.06
61484;BME280;47349;55.640;37.692;2023-04-27T12:55:03;98702.69;;;24.06;36.64
61484;BME280;47349;55.640;37.692;2023-04-27T12:57:31;98694.97;;;24.13;35.73
61484;BME280;47349;55.640;37.692;2023-04-27T13:00:17;98694.63;;;24.20;35.50
61484;BME280;47349;55.640;37.692;2023-04-27T13:02:45;98677.59;;;23.99;35.34
61484;BME280;47349;55.640;37.692;2023-04-27T13:05:12;98690.13;;;24.05;34.74
61484;BME280;47349;55.640;37.692;2023-04-27T13:07:40;98687.78;;;24.17;35.40
61484;BME280;47349;55.640;37.692;2023-04-27T13:10:08;98678.16;;;24.25;34.81
61484;BME280;47349;55.640;37.692;2023-04-27T13:12:35;98683.06;;;24.28;34.29
61484;BME280;47349;55.640;37.692;2023-04-27T13:15:02;98686.97;;;24.46;34.05
61484;BME280;47349;55.640;37.692;2023-04-27T13:17:30;98673.00;;;24.71;34.06
61484;BME280;47349;55.640;37.692;2023-04-27T13:19:57;98669.09;;;24.53;33.97
61484;BME280;47349;55.640;37.692;2023-04-27T13:22:24;98663.78;;;24.62;33.37
61484;BME280;47349;55.640;37.692;2023-04-27T13:24:51;98667.13;;;24.30;34.62
61484;BME280;47349;55.640;37.692;2023-04-27T13:27:19;98676.72;;;24.03;35.33
61484;BME280;47349;55.640;37.692;2023-04-27T13:29:48;98692.06;;;23.70;35.54
61484;BME280;47349;55.640;37.692;2023-04-27T13:32:34;98689.47;;;23.00;37.36
61484;BME280;47349;55.640;37.692;2023-04-27T13:35:01;98672.19;;;22.45;38.63
61484;BME280;47349;55.640;37.692;2023-04-27T13:37:28;98682.09;;;22.00;37.81
61484;BME280;47349;55.640;37.692;2023-04-27T13:39:56;98684.97;;;22.60;38.26
61484;BME280;47349;55.640;37.692;2023-04-27T13:42:41;98684.00;;;23.00;37.20
61484;BME280;47349;55.640;37.692;2023-04-27T13:45:09;98690.41;;;23.25;36.88
61484;BME280;47349;55.640;37.692;2023-04-27T13:47:36;98695.78;;;23.45;36.36
61484;BME280;47349;55.640;37.692;2023-04-27T13:50:08;98689.88;;;23.28;36.71